Kalispell, MT

2:55 AM MDT on September 17, 2014 (GMT -0600)
Mullan Pass | Change Station
CLOSE
Current Station
Airport
Location: Mullan Pass,
Elevation: 6073 ft
Nearby Weather Stations

Elev 6073 ft 47.45 °N, 115.67 °W | Updated 1 hour ago

Partly Cloudy
Partly Cloudy
62 °F
Feels Like 62 °F
N
5
Wind Variable Wind from South

Today
High -- | Low -- °F
--% Chance of Precip.
Yesterday
High -- | Low -- °F
Precip. -- in
7:16 AM 7:45 PM
Last Quarter, 38% visible
Pressure 29.75 in
Visibility 10.0 miles
Clouds Clear
Dew Point 37 °F
Humidity 39%
Rainfall 0.00 in
Snow Depth Not available.
UV 0 out of 12
Pollen 2.30 out of 12
Air Quality Not available.
Flu Activity Not available.
METAR KMLP 170753Z AUTO 17004KT 10SM CLR 17/03 A3005 RMK AO2 SLP074 T01670028 402220150

More Conditions Fewer Conditions

Pressure 29.75 in
Visibility 10.0 miles
Clouds Clear
Dew Point 37 °F
Humidity 39%
Rainfall 0.00 in
Snow Depth Not available.
UV 0 out of 12
Pollen 2.30 out of 12
Air Quality Not available.
Flu Activity Not available.
METAR KMLP 170753Z AUTO 17004KT 10SM CLR 17/03 A3005 RMK AO2 SLP074 T01670028 402220150

More Conditions Fewer Conditions

10-Day Weather Forecast

Almanac

Astronomy

Sep. 17, 2014 Rise Set
Actual Time 7:16 AM MDT 7:45 PM MDT
Civil Twilight 6:45 AM MDT 8:16 PM MDT
Nautical Twilight 6:08 AM MDT 8:53 PM MDT
Astronomical Twilight 5:29 AM MDT 9:31 PM MDT
Moon 1:00 AM MDT 4:16 PM MDT
Length of Visible Light 13h 30m
Length of Day
12h 28m
Tomorrow will be 3m 29s shorter.
Last Quarter, 38% of the Moon is Illuminated
Today
Last Quarter
Sep 24
New
Oct 1
First Quarter
Oct 8
Full
Oct 15
Last Quarter

Today's Extremes

State Highs State Lows

Community

WunderPhotos

Upload Photos

1,753,990 photos uploaded!

Nearby

Snow Depth

Station Depth Elevation
West Yellowstone 0 in 6700 ft
Porcupine 1 in 6500 ft
Burnt Mountain 0 in 5880 ft
Boulder Mountain 0 in 7950 ft
Northeast Entrance 0 in 7350 ft

Earthquake Activity

City Distance Mag. Time & Date
No recent earthquake activity has been reported nearby.
Minimum magnitude displayed is 2.5.

Coastal Water Temperatures

Place Temperature
No Stations Reporting

Nearby Weather Stations